Presque Isle, MI

1:38 AM EST on December 25, 2014 (GMT -0500)
Cheboygan | Change Station
CLOSE
Current Station
Airport
Location: Cheboygan,
Elevation: 640 ft
Nearby Weather Stations

Elev 640 ft 45.65 °N, 84.52 °W | Updated 33 seconds ago

Snow
Snow
34 °F
Feels Like 25 °F
N
13
Wind Variable Wind from West
Gusts 24 mph

Today
High -- | Low -- °F
--% Chance of Precip.
Yesterday
High -- | Low -- °F
Precip. -- in
8:12 AM 4:56 PM
Waxing Crescent, 14% visible
Pressure 29.33 in
Visibility 10.0 miles
Clouds Overcast 600 ft
Windchill 25 °F
Dew Point 33 °F
Humidity 97%
Rainfall 0.00 in
Snow Depth Not available.
UV 0 out of 12
Pollen .10 out of 12
Air Quality Not available.
Flu Activity Not available.
METAR KSLH 250638Z AUTO 28011G21KT 10SM OVC006 01/00 A2933 RMK AO2 T00100006

More Conditions Fewer Conditions

Pressure 29.33 in
Visibility 10.0 miles
Clouds Overcast 600 ft
Windchill 25 °F
Dew Point 33 °F
Humidity 97%
Rainfall 0.00 in
Snow Depth Not available.
UV 0 out of 12
Pollen .10 out of 12
Air Quality Not available.
Flu Activity Not available.
METAR KSLH 250638Z AUTO 28011G21KT 10SM OVC006 01/00 A2933 RMK AO2 T00100006

More Conditions Fewer Conditions

Nowcast | as of 1:00 am EST on December 25, 2014

At 2 am...very light snow. Temperature 32. West winds 18 mph with gusts to 30 mph. At 4 am...cloudy. Temperature 31. West winds 19 mph with gusts to 30 mph. At 6 am...cloudy. Temperature 31. West winds 19 mph with gusts to 30 mph. At 8 am...cloudy. Scattered flurries. Temperature 31. West winds 18 mph with gusts to 30 mph.

×

10-Day Weather Forecast

Almanac

Astronomy

Dec. 25, 2014 Rise Set
Actual Time
Civil Twilight
Nautical Twilight
Astronomical Twilight
Moon
Length of Visible Light
Length of Day
Tomorrow will be .
, % of the Moon is Illuminated

Today's Extremes

State Highs State Lows

Community

WunderPhotos

Upload Photos

1,780,247 photos uploaded!

WunderBlogs® & News

Nearby

Air Quality

  Air Quality AQ Index Pollutant
Not available.

Snow Depth

Station Depth Elevation

Earthquake Activity

City Distance Mag. Time & Date
Minimum magnitude displayed is 2.5.

Coastal Water Temperatures

Place Temperature

Nearby Weather Stations